Time;durP1;ratioP1;P1;durP2;ratioP2;P2;SDS_P1;SDS_P2;PMS_P1;PMS_P2;Temp;Humidity;BMP_temperature;BMP_pressure;BME280_temperature;BME280_humidity;BME280_pressure;Samples;Min_cycle;Max_cycle;Signal;HPM_P1;HPM_P2
2022/12/15 00:38:46;;;;;;;23.20;12.63;;;;;;;;;;6147975;23;20167;-79
2022/12/15 00:41:13;;;;;;;14.27;11.27;;;;;;;;;;6143496;23;20183;-81
2022/12/15 00:43:39;;;;;;;12.90;10.93;;;;;;;;;;6147323;23;20176;-79
2022/12/15 00:48:51;;;;;;;16.30;8.10;;;;;;;;;;6147113;23;20873;-80
2022/12/15 00:51:17;;;;;;;24.88;9.20;;;;;;;;;;6143173;23;20203;-80
2022/12/15 01:21:12;;;;;;;16.27;10.80;;;;;;;;;;6142281;23;20168;-79
2022/12/15 01:23:39;;;;;;;17.80;12.57;;;;;;;;;;6145038;23;20191;-80
2022/12/15 01:26:06;;;;;;;18.63;12.00;;;;;;;;;;6142515;23;20655;-81
2022/12/15 01:28:32;;;;;;;14.60;11.23;;;;;;;;;;6146671;23;20231;-79
2022/12/15 01:30:58;;;;;;;17.23;11.70;;;;;;;;;;6142736;23;20161;-80
2022/12/15 01:33:24;;;;;;;18.70;11.90;;;;;;;;;;6144355;23;20168;-79
2022/12/15 01:35:56;;;;;;;22.53;12.53;;;;;;;;;;6143274;23;20763;-79
2022/12/15 01:38:22;;;;;;;14.57;10.23;;;;;;;;;;6146334;23;20512;-80
2022/12/15 01:40:53;;;;;;;18.93;8.70;;;;;;;;;;6142162;23;20180;-80
2022/12/15 01:43:27;;;;;;;20.60;12.15;;;;;;;;;;6146530;23;20416;-79
2022/12/15 01:45:54;;;;;;;20.88;12.68;;;;;;;;;;6141826;23;20160;-79
2022/12/15 01:48:24;;;;;;;17.63;11.90;;;;;;;;;;6146447;23;20712;-80
2022/12/15 01:50:58;;;;;;;19.33;13.07;;;;;;;;;;6142039;23;20174;-80
2022/12/15 01:53:28;;;;;;;23.38;13.27;;;;;;;;;;6146655;23;20180;-79
2022/12/15 01:55:54;;;;;;;20.23;11.70;;;;;;;;;;6142591;23;20160;-79
2022/12/15 01:58:21;;;;;;;21.67;13.20;;;;;;;;;;6146214;23;20205;-80
2022/12/15 02:00:47;;;;;;;17.42;12.80;;;;;;;;;;6141740;23;20157;-79
2022/12/15 02:03:14;;;;;;;16.77;10.30;;;;;;;;;;6146081;23;20624;-79
2022/12/15 02:05:41;;;;;;;21.48;12.07;;;;;;;;;;6142896;23;20168;-79
2022/12/15 02:08:09;;;;;;;19.05;13.52;;;;;;;;;;6146562;23;20172;-78
2022/12/15 02:10:49;;;;;;;27.83;15.02;;;;;;;;;;6135418;23;20156;-78
2022/12/15 02:13:20;;;;;;;20.27;12.48;;;;;;;;;;6146933;23;20161;-78
2022/12/15 02:15:48;;;;;;;18.25;12.57;;;;;;;;;;6142946;23;20191;-79
2022/12/15 02:18:14;;;;;;;28.42;12.60;;;;;;;;;;6145249;23;20150;-77
2022/12/15 02:20:44;;;;;;;23.67;15.37;;;;;;;;;;6142793;23;20236;-78
2022/12/15 02:23:29;;;;;;;21.33;12.50;;;;;;;;;;6146052;23;20416;-79
2022/12/15 02:26:09;;;;;;;19.40;13.55;;;;;;;;;;6141207;23;20170;-79
2022/12/15 02:28:54;;;;;;;25.40;13.85;;;;;;;;;;6146226;23;20147;-79
2022/12/15 02:34:15;;;;;;;29.38;11.95;;;;;;;;;;6146431;23;20145;-79
2022/12/15 02:36:46;;;;;;;21.92;14.13;;;;;;;;;;6142785;23;20164;-79
2022/12/15 02:39:12;;;;;;;23.98;13.85;;;;;;;;;;6145921;23;20211;-78
2022/12/15 02:41:46;;;;;;;24.65;13.02;;;;;;;;;;6142548;23;20256;-79
2022/12/15 02:44:12;;;;;;;23.27;13.15;;;;;;;;;;6144950;23;20160;-81
2022/12/15 02:46:44;;;;;;;28.07;15.07;;;;;;;;;;6142696;23;20195;-78
2022/12/15 02:49:19;;;;;;;12.95;10.15;;;;;;;;;;6146439;23;20826;-79
2022/12/15 02:52:03;;;;;;;15.00;11.00;;;;;;;;;;6142915;23;20153;-81
2022/12/15 02:54:49;;;;;;;25.10;12.95;;;;;;;;;;6145006;23;20668;-79
2022/12/15 02:57:15;;;;;;;23.08;13.35;;;;;;;;;;6147267;23;20145;-79
2022/12/15 02:59:54;;;;;;;24.27;15.03;;;;;;;;;;6143198;23;20157;-79
2022/12/15 03:02:21;;;;;;;23.83;14.43;;;;;;;;;;6147696;23;20360;-78
2022/12/15 03:07:52;;;;;;;26.70;15.23;;;;;;;;;;6148180;23;20139;-79
2022/12/15 03:10:19;;;;;;;27.65;16.40;;;;;;;;;;6144233;23;20166;-80
2022/12/15 03:12:45;;;;;;;24.77;12.45;;;;;;;;;;6160090;23;20149;-79
2022/12/15 03:15:11;;;;;;;24.52;11.60;;;;;;;;;;6156875;23;20153;-78
2022/12/15 03:17:37;;;;;;;24.40;11.32;;;;;;;;;;6154916;23;20174;-78
2022/12/15 03:20:04;;;;;;;31.73;15.53;;;;;;;;;;6148906;23;20204;-79
2022/12/15 03:22:30;;;;;;;24.30;15.25;;;;;;;;;;6150128;23;20383;-79
2022/12/15 03:24:56;;;;;;;23.35;14.77;;;;;;;;;;6145499;23;20230;-78
2022/12/15 03:27:22;;;;;;;24.02;15.00;;;;;;;;;;6144830;23;20153;-78
2022/12/15 03:29:48;;;;;;;34.92;16.10;;;;;;;;;;6140302;23;20170;-78
2022/12/15 03:32:14;;;;;;;30.10;14.87;;;;;;;;;;6145789;23;20187;-78
2022/12/15 03:34:40;;;;;;;38.03;17.83;;;;;;;;;;6142677;23;21019;-79
2022/12/15 03:37:06;;;;;;;29.97;15.17;;;;;;;;;;6147195;23;20134;-79
2022/12/15 03:39:32;;;;;;;31.90;15.75;;;;;;;;;;6142775;23;20387;-79
2022/12/15 03:41:58;;;;;;;22.85;13.70;;;;;;;;;;6145339;23;20398;-78
2022/12/15 03:44:24;;;;;;;22.45;11.70;;;;;;;;;;6141669;23;20176;-80
2022/12/15 03:46:50;;;;;;;26.30;15.43;;;;;;;;;;6146026;23;20188;-79
2022/12/15 03:49:16;;;;;;;27.77;15.70;;;;;;;;;;6146060;23;20239;-80
2022/12/15 03:51:43;;;;;;;34.20;15.50;;;;;;;;;;6139048;23;20248;-80
2022/12/15 03:54:11;;;;;;;25.50;15.82;;;;;;;;;;6146084;23;20420;-79
2022/12/15 03:56:37;;;;;;;25.38;13.50;;;;;;;;;;6142252;23;20223;-78
2022/12/15 03:59:03;;;;;;;23.17;14.73;;;;;;;;;;6145586;23;20240;-79
2022/12/15 04:01:31;;;;;;;32.73;15.80;;;;;;;;;;6141749;23;20199;-79
2022/12/15 04:03:57;;;;;;;31.88;17.73;;;;;;;;;;6145856;23;20435;-79
2022/12/15 04:06:23;;;;;;;29.05;17.35;;;;;;;;;;6142795;23;20165;-80
2022/12/15 04:08:49;;;;;;;28.27;16.30;;;;;;;;;;6146220;23;20240;-79
2022/12/15 04:11:15;;;;;;;24.92;14.55;;;;;;;;;;6138046;23;20161;-79
2022/12/15 04:13:41;;;;;;;20.75;14.45;;;;;;;;;;6147727;23;20586;-79
2022/12/15 04:16:07;;;;;;;26.02;15.98;;;;;;;;;;6145256;23;20156;-80
2022/12/15 04:18:33;;;;;;;30.33;18.35;;;;;;;;;;6149616;23;20615;-80
2022/12/15 04:20:59;;;;;;;34.80;15.60;;;;;;;;;;6146289;23;20590;-81
2022/12/15 04:23:25;;;;;;;29.40;15.30;;;;;;;;;;6148876;23;20172;-81
2022/12/15 05:32:07;;;;;;;33.42;16.75;;;;;;;;;;6143571;23;20179;-80
2022/12/15 05:34:34;;;;;;;28.17;15.30;;;;;;;;;;6146606;23;20153;-79
2022/12/15 05:37:01;;;;;;;31.30;15.80;;;;;;;;;;6142353;23;20157;-80
2022/12/15 05:39:27;;;;;;;27.02;15.52;;;;;;;;;;6144848;23;20145;-80
2022/12/15 05:41:53;;;;;;;30.02;16.15;;;;;;;;;;6141571;23;20157;-80
2022/12/15 05:44:19;;;;;;;21.83;14.45;;;;;;;;;;6145975;23;20193;-79
2022/12/15 05:46:46;;;;;;;27.80;15.05;;;;;;;;;;6135911;23;20198;-80
2022/12/15 05:49:16;;;;;;;33.95;17.25;;;;;;;;;;6146133;23;20188;-80
2022/12/15 05:51:43;;;;;;;29.17;15.68;;;;;;;;;;6141585;23;20146;-79
2022/12/15 05:54:10;;;;;;;36.30;16.08;;;;;;;;;;6145382;23;20160;-78
2022/12/15 05:56:36;;;;;;;17.88;11.60;;;;;;;;;;6144743;23;20165;-80
2022/12/15 05:59:03;;;;;;;15.05;11.73;;;;;;;;;;6146158;23;20159;-79
2022/12/15 06:01:34;;;;;;;11.50;8.57;;;;;;;;;;6142161;23;20833;-79
2022/12/15 06:04:00;;;;;;;28.40;15.02;;;;;;;;;;6146368;23;20180;-78
2022/12/15 06:06:26;;;;;;;24.92;13.82;;;;;;;;;;6143674;23;20169;-79
2022/12/15 06:08:52;;;;;;;25.10;15.27;;;;;;;;;;6140870;23;20158;-79
2022/12/15 06:11:22;;;;;;;25.63;15.15;;;;;;;;;;6143096;23;20816;-79
2022/12/15 06:13:48;;;;;;;21.05;14.15;;;;;;;;;;6146044;23;20383;-81
2022/12/15 06:16:21;;;;;;;18.60;10.45;;;;;;;;;;6142862;23;20165;-78
2022/12/15 06:18:51;;;;;;;24.02;13.65;;;;;;;;;;6146461;23;20142;-81
2022/12/15 06:21:19;;;;;;;30.20;14.15;;;;;;;;;;6142261;23;20157;-79
2022/12/15 06:23:46;;;;;;;32.28;17.40;;;;;;;;;;6142445;23;20193;-79
2022/12/15 06:26:29;;;;;;;27.10;16.30;;;;;;;;;;6141960;23;20165;-79
2022/12/15 06:28:57;;;;;;;33.90;16.30;;;;;;;;;;6143797;23;20216;-80
2022/12/15 06:31:24;;;;;;;18.88;11.90;;;;;;;;;;6142433;23;20161;-79
2022/12/15 06:33:53;;;;;;;30.60;14.25;;;;;;;;;;6144819;23;20149;-80
2022/12/15 06:36:19;;;;;;;33.22;16.65;;;;;;;;;;6144201;23;20184;-80
2022/12/15 06:38:51;;;;;;;18.30;11.67;;;;;;;;;;6148167;23;20148;-79
2022/12/15 06:41:18;;;;;;;25.27;15.02;;;;;;;;;;6155191;23;20385;-79
2022/12/15 06:43:57;;;;;;;13.35;11.52;;;;;;;;;;6159221;23;20161;-79
2022/12/15 06:46:23;;;;;;;6.75;4.95;;;;;;;;;;6150618;23;20168;-80
2022/12/15 06:48:52;;;;;;;35.15;15.18;;;;;;;;;;6150240;23;20149;-81
2022/12/15 06:51:27;;;;;;;22.55;14.00;;;;;;;;;;6146904;23;20192;-82
2022/12/15 06:53:54;;;;;;;25.95;14.48;;;;;;;;;;6121827;23;20164;-81
2022/12/15 06:56:34;;;;;;;29.88;16.75;;;;;;;;;;6143158;23;20611;-80
2022/12/15 06:59:01;;;;;;;23.77;13.65;;;;;;;;;;6145680;23;20164;-81
2022/12/15 07:01:27;;;;;;;25.50;15.23;;;;;;;;;;6142850;23;20622;-81
2022/12/15 07:03:53;;;;;;;27.63;12.90;;;;;;;;;;6145981;23;20815;-81
2022/12/15 07:06:20;;;;;;;17.20;8.98;;;;;;;;;;6142250;23;20200;-81
2022/12/15 07:08:55;;;;;;;29.67;15.35;;;;;;;;;;6138266;23;20153;-80
2022/12/15 07:11:21;;;;;;;21.92;14.30;;;;;;;;;;6141531;23;20512;-79
2022/12/15 07:13:51;;;;;;;42.92;16.40;;;;;;;;;;6143791;23;20140;-80
2022/12/15 07:16:17;;;;;;;22.50;13.73;;;;;;;;;;6114595;23;20810;-81
2022/12/15 07:18:43;;;;;;;28.88;16.73;;;;;;;;;;6146344;23;20236;-78
2022/12/15 07:21:09;;;;;;;23.15;13.98;;;;;;;;;;6141168;23;20190;-80
2022/12/15 07:23:36;;;;;;;28.20;14.43;;;;;;;;;;6120554;23;20506;-82
2022/12/15 07:26:03;;;;;;;27.35;15.60;;;;;;;;;;6142087;23;20455;-81
2022/12/15 07:28:29;;;;;;;29.30;15.02;;;;;;;;;;6146024;23;20591;-80
2022/12/15 07:30:55;;;;;;;33.00;17.05;;;;;;;;;;6142279;23;20153;-81
2022/12/15 07:33:21;;;;;;;25.80;15.85;;;;;;;;;;6146151;23;20148;-81
2022/12/15 07:35:54;;;;;;;25.53;13.50;;;;;;;;;;6145589;23;20161;-81
2022/12/15 07:38:20;;;;;;;22.55;13.65;;;;;;;;;;6143920;23;20477;-78
2022/12/15 07:40:49;;;;;;;9.35;8.48;;;;;;;;;;6141292;23;20156;-80
2022/12/15 07:43:15;;;;;;;29.42;15.13;;;;;;;;;;6145056;23;20168;-80
2022/12/15 07:45:41;;;;;;;29.52;16.35;;;;;;;;;;6142670;23;20219;-79
2022/12/15 07:48:07;;;;;;;26.47;14.80;;;;;;;;;;6148678;23;20508;-81
2022/12/15 07:50:38;;;;;;;29.45;14.65;;;;;;;;;;6154073;23;20399;-81
2022/12/15 07:53:04;;;;;;;20.27;13.30;;;;;;;;;;6148236;23;20164;-81
2022/12/15 07:55:31;;;;;;;17.92;10.65;;;;;;;;;;6147886;23;20137;-81
2022/12/15 07:57:57;;;;;;;18.55;11.35;;;;;;;;;;6145684;23;20266;-81
2022/12/15 08:00:23;;;;;;;25.37;14.07;;;;;;;;;;6147082;23;20181;-82
2022/12/15 08:02:49;;;;;;;21.53;14.53;;;;;;;;;;6144127;23;20431;-82
2022/12/15 08:05:15;;;;;;;27.07;14.00;;;;;;;;;;6147159;23;20955;-82
2022/12/15 08:07:41;;;;;;;30.30;14.27;;;;;;;;;;6144272;23;20384;-81
2022/12/15 08:10:07;;;;;;;25.93;16.33;;;;;;;;;;6141694;23;20595;-81
2022/12/15 08:12:33;;;;;;;29.42;16.02;;;;;;;;;;6140881;23;20601;-81
2022/12/15 08:14:59;;;;;;;35.67;16.00;;;;;;;;;;6147881;23;20129;-83
2022/12/15 08:17:25;;;;;;;23.73;16.40;;;;;;;;;;6142896;23;20400;-82
2022/12/15 08:19:51;;;;;;;33.40;18.08;;;;;;;;;;6146615;23;20172;-82
2022/12/15 08:22:18;;;;;;;31.95;17.40;;;;;;;;;;6143867;23;20164;-82
2022/12/15 08:24:47;;;;;;;30.25;13.27;;;;;;;;;;6122266;23;20531;-81
2022/12/15 08:27:16;;;;;;;25.48;13.38;;;;;;;;;;6145979;23;20160;-82
2022/12/15 08:29:42;;;;;;;41.55;17.48;;;;;;;;;;6146042;23;20160;-82
2022/12/15 08:32:08;;;;;;;33.17;16.70;;;;;;;;;;6141799;23;20157;-80
2022/12/15 08:34:34;;;;;;;32.45;16.63;;;;;;;;;;6147386;23;20909;-81
2022/12/15 08:37:11;;;;;;;33.83;19.08;;;;;;;;;;6145319;23;20156;-80
2022/12/15 08:39:37;;;;;;;34.70;16.30;;;;;;;;;;6147150;23;20133;-79
2022/12/15 08:42:04;;;;;;;40.83;17.33;;;;;;;;;;6141096;23;20164;-81
2022/12/15 08:44:30;;;;;;;29.63;17.73;;;;;;;;;;6146433;23;20415;-81
2022/12/15 08:46:56;;;;;;;32.03;15.30;;;;;;;;;;6143308;23;20240;-81
2022/12/15 08:49:32;;;;;;;38.63;15.77;;;;;;;;;;6134899;23;20158;-81
2022/12/15 08:51:58;;;;;;;33.15;16.42;;;;;;;;;;6143603;23;20500;-83
2022/12/15 08:54:24;;;;;;;33.10;16.73;;;;;;;;;;6143703;23;20536;-80
2022/12/15 08:56:50;;;;;;;36.58;16.88;;;;;;;;;;6147021;23;20501;-81
2022/12/15 08:59:18;;;;;;;44.30;18.48;;;;;;;;;;6141354;23;20236;-80
2022/12/15 09:01:44;;;;;;;44.47;20.17;;;;;;;;;;6142744;23;20148;-82
2022/12/15 09:04:10;;;;;;;37.37;19.17;;;;;;;;;;6146686;23;20745;-81
2022/12/15 09:06:36;;;;;;;37.60;18.30;;;;;;;;;;6143901;23;20438;-82
2022/12/15 09:09:06;;;;;;;32.07;16.00;;;;;;;;;;6142415;23;20404;-81
2022/12/15 09:11:32;;;;;;;35.35;17.65;;;;;;;;;;6142743;23;20406;-82
2022/12/15 09:13:58;;;;;;;30.17;14.90;;;;;;;;;;6144448;23;20247;-81
2022/12/15 09:16:26;;;;;;;37.95;15.75;;;;;;;;;;6143791;23;20188;-80
2022/12/15 09:18:53;;;;;;;37.85;17.88;;;;;;;;;;6146805;23;20552;-81
2022/12/15 09:21:43;;;;;;;30.35;16.60;;;;;;;;;;6143207;23;20236;-81
2022/12/15 09:24:11;;;;;;;37.20;17.88;;;;;;;;;;6121405;23;20507;-81
2022/12/15 09:26:37;;;;;;;39.40;21.95;;;;;;;;;;6145356;23;20236;-79
2022/12/15 09:29:03;;;;;;;39.40;18.73;;;;;;;;;;6147499;23;20149;-81
2022/12/15 09:31:35;;;;;;;47.13;19.70;;;;;;;;;;6144460;23;20579;-85
2022/12/15 09:34:02;;;;;;;53.20;20.48;;;;;;;;;;6148332;23;20385;-82
2022/12/15 09:36:32;;;;;;;40.17;18.42;;;;;;;;;;6141592;23;20149;-81
2022/12/15 09:39:00;;;;;;;41.70;20.83;;;;;;;;;;6131427;23;20503;-81
2022/12/15 09:41:27;;;;;;;46.45;21.60;;;;;;;;;;6147282;23;20538;-81
2022/12/15 09:43:59;;;;;;;33.28;16.02;;;;;;;;;;6146330;23;20219;-80
2022/12/15 09:46:30;;;;;;;39.75;21.27;;;;;;;;;;6147644;23;20176;-79
2022/12/15 09:48:57;;;;;;;34.53;16.65;;;;;;;;;;6143760;23;20522;-79
2022/12/15 09:51:35;;;;;;;41.13;21.83;;;;;;;;;;6146773;23;20168;-79
2022/12/15 09:54:01;;;;;;;40.33;20.92;;;;;;;;;;6145928;23;20143;-79
2022/12/15 09:56:40;;;;;;;32.30;16.67;;;;;;;;;;6143762;23;20192;-80
2022/12/15 09:59:19;;;;;;;35.22;20.80;;;;;;;;;;6149059;23;20137;-81
2022/12/15 10:01:45;;;;;;;48.17;23.77;;;;;;;;;;6141513;23;20149;-81
2022/12/15 10:04:15;;;;;;;47.42;24.52;;;;;;;;;;6154859;23;20236;-79
2022/12/15 10:06:54;;;;;;;44.10;21.35;;;;;;;;;;6155190;23;20176;-80
2022/12/15 10:09:22;;;;;;;41.65;23.38;;;;;;;;;;6153450;23;20626;-80
2022/12/15 10:11:51;;;;;;;48.33;24.25;;;;;;;;;;6146872;23;20172;-79
2022/12/15 10:14:29;;;;;;;46.08;23.55;;;;;;;;;;6148821;23;20473;-79
2022/12/15 10:17:01;;;;;;;34.35;19.17;;;;;;;;;;6142249;23;20693;-79
2022/12/15 10:19:39;;;;;;;27.58;15.25;;;;;;;;;;6147530;23;20157;-81
2022/12/15 10:22:05;;;;;;;45.63;22.58;;;;;;;;;;6139961;23;20161;-78
2022/12/15 10:24:32;;;;;;;42.75;21.10;;;;;;;;;;6142971;23;20227;-81
2022/12/15 10:27:03;;;;;;;48.28;22.80;;;;;;;;;;6142358;23;20157;-82
2022/12/15 10:29:41;;;;;;;42.60;22.75;;;;;;;;;;6146998;23;20188;-82
2022/12/15 10:32:18;;;;;;;37.30;21.15;;;;;;;;;;6144893;23;20153;-82
2022/12/15 10:34:44;;;;;;;37.70;21.17;;;;;;;;;;6146685;23;20210;-81
2022/12/15 10:37:17;;;;;;;44.55;24.38;;;;;;;;;;6145434;23;20155;-82
2022/12/15 10:39:45;;;;;;;33.20;18.13;;;;;;;;;;6149741;23;20170;-82
2022/12/15 10:42:26;;;;;;;45.05;23.40;;;;;;;;;;6147384;23;20194;-83
2022/12/15 10:44:54;;;;;;;42.90;23.92;;;;;;;;;;6149077;23;20175;-83
2022/12/15 10:47:25;;;;;;;35.72;20.33;;;;;;;;;;6144783;23;20192;-85
2022/12/15 10:49:51;;;;;;;42.33;23.40;;;;;;;;;;6148101;23;20141;-84
2022/12/15 10:52:23;;;;;;;37.88;22.27;;;;;;;;;;6149254;23;20173;-84
2022/12/15 10:54:53;;;;;;;39.78;24.20;;;;;;;;;;6144589;23;20540;-86
2022/12/15 10:57:26;;;;;;;45.83;23.17;;;;;;;;;;6150253;23;20299;-83
2022/12/15 10:59:52;;;;;;;43.90;21.73;;;;;;;;;;6146919;23;20180;-81
2022/12/15 11:02:28;;;;;;;43.35;23.80;;;;;;;;;;6148243;23;20164;-84
2022/12/15 11:04:58;;;;;;;43.20;24.23;;;;;;;;;;6147736;23;20447;-82
2022/12/15 11:08:02;;;;;;;34.38;19.73;;;;;;;;;;6148983;23;20498;-83
2022/12/15 11:12:50;;;;;;;40.67;25.15;;;;;;;;;;5996562;23;20162;-81
2022/12/15 11:13:17;;;;;;;42.90;27.48;;;;;;;;;;6139528;23;20662;-83
2022/12/15 11:15:51;;;;;;;35.20;22.17;;;;;;;;;;6149053;23;20564;-83
2022/12/15 11:18:26;;;;;;;31.73;17.52;;;;;;;;;;6144203;23;20590;-80
2022/12/15 11:20:56;;;;;;;34.88;20.80;;;;;;;;;;6142477;23;20705;-83
2022/12/15 11:23:47;;;;;;;36.20;23.55;;;;;;;;;;6141234;23;20152;-82
2022/12/15 11:26:20;;;;;;;37.37;24.07;;;;;;;;;;6154291;23;20448;-82
2022/12/15 11:28:50;;;;;;;42.10;25.17;;;;;;;;;;6142205;23;20387;-82
2022/12/15 11:31:19;;;;;;;34.87;25.13;;;;;;;;;;6146675;23;20372;-82
2022/12/15 11:33:45;;;;;;;32.87;23.53;;;;;;;;;;6142173;23;20372;-83
2022/12/15 11:36:11;;;;;;;43.57;25.83;;;;;;;;;;6145759;23;20895;-83
2022/12/15 11:38:47;;;;;;;34.70;22.57;;;;;;;;;;6142103;23;20432;-82
2022/12/15 11:41:21;;;;;;;41.17;25.90;;;;;;;;;;6150131;23;20451;-83
2022/12/15 11:43:56;;;;;;;47.00;30.63;;;;;;;;;;6142104;23;20387;-83
2022/12/15 11:46:26;;;;;;;39.50;28.13;;;;;;;;;;6149811;23;20527;-81
2022/12/15 11:49:11;;;;;;;47.47;26.73;;;;;;;;;;6145279;23;20376;-81
2022/12/15 11:51:58;;;;;;;41.70;26.57;;;;;;;;;;6148238;23;20372;-83
2022/12/15 11:54:27;;;;;;;38.63;24.30;;;;;;;;;;6145455;23;20407;-83
2022/12/15 11:56:57;;;;;;;42.70;27.13;;;;;;;;;;6147442;23;20455;-81
2022/12/15 11:59:42;;;;;;;44.87;28.13;;;;;;;;;;6140950;23;20404;-82
2022/12/15 12:02:14;;;;;;;40.93;25.90;;;;;;;;;;6146731;23;20418;-82
2022/12/15 12:04:40;;;;;;;43.00;26.07;;;;;;;;;;6143607;23;20383;-83
2022/12/15 12:07:09;;;;;;;39.80;26.10;;;;;;;;;;6146590;23;20395;-83
2022/12/15 12:09:36;;;;;;;38.27;24.40;;;;;;;;;;6137432;23;20496;-83
2022/12/15 12:12:29;;;;;;;40.47;25.37;;;;;;;;;;6135554;23;20395;-86
2022/12/15 12:15:15;;;;;;;39.27;26.20;;;;;;;;;;6139966;23;20440;-81
2022/12/15 12:17:44;;;;;;;38.00;24.90;;;;;;;;;;6147691;23;20404;-82
2022/12/15 12:20:16;;;;;;;39.07;25.90;;;;;;;;;;6145906;23;20819;-82
2022/12/15 12:22:46;;;;;;;41.53;27.23;;;;;;;;;;6148881;23;20384;-83
2022/12/15 12:25:17;;;;;;;40.33;26.60;;;;;;;;;;6146524;23;20376;-83
2022/12/15 12:27:53;;;;;;;42.37;27.50;;;;;;;;;;6146837;23;20452;-81
2022/12/15 12:30:20;;;;;;;38.50;26.53;;;;;;;;;;6142352;23;20490;-83
2022/12/15 12:32:55;;;;;;;40.87;26.80;;;;;;;;;;6149429;23;20411;-84
2022/12/15 12:35:39;;;;;;;41.70;27.57;;;;;;;;;;6146708;23;20457;-81
2022/12/15 12:38:06;;;;;;;44.07;25.00;;;;;;;;;;6150182;23;20443;-84
2022/12/15 12:40:58;;;;;;;51.30;27.20;;;;;;;;;;6154025;23;20368;-87
2022/12/15 12:43:24;;;;;;;39.53;26.87;;;;;;;;;;6147934;23;20387;-83
2022/12/15 12:46:02;;;;;;;36.17;23.90;;;;;;;;;;6145691;23;20411;-84
2022/12/15 12:48:36;;;;;;;45.00;27.40;;;;;;;;;;6150203;23;20760;-82
2022/12/15 12:51:16;;;;;;;42.57;24.97;;;;;;;;;;6142883;23;20404;-83
2022/12/15 12:53:42;;;;;;;36.00;24.20;;;;;;;;;;6150598;23;20735;-84
2022/12/15 12:56:28;;;;;;;43.93;25.63;;;;;;;;;;6147891;23;20384;-84
2022/12/15 12:58:54;;;;;;;35.80;24.40;;;;;;;;;;6152056;23;20371;-84
2022/12/15 13:01:26;;;;;;;37.17;24.87;;;;;;;;;;6146305;23;20430;-85
2022/12/15 13:04:32;;;;;;;36.10;24.03;;;;;;;;;;6118290;23;20400;-84
2022/12/15 13:06:58;;;;;;;37.50;25.27;;;;;;;;;;6143804;23;20964;-85
2022/12/15 13:09:37;;;;;;;40.50;26.47;;;;;;;;;;6146301;23;20889;-84
2022/12/15 13:12:03;;;;;;;38.87;21.93;;;;;;;;;;6145105;23;20803;-83
2022/12/15 13:14:38;;;;;;;41.57;26.40;;;;;;;;;;6146946;23;20775;-82
2022/12/15 13:17:10;;;;;;;37.70;24.57;;;;;;;;;;6150064;23;20876;-80
2022/12/15 13:19:55;;;;;;;40.60;23.33;;;;;;;;;;6160698;23;20357;-81
2022/12/15 13:22:27;;;;;;;37.07;22.70;;;;;;;;;;6164441;23;20384;-78
2022/12/15 13:24:56;;;;;;;35.75;23.10;;;;;;;;;;6152898;23;20372;-82
2022/12/15 13:27:22;;;;;;;34.90;23.30;;;;;;;;;;6150280;23;20184;-82
2022/12/15 13:29:57;;;;;;;37.23;23.60;;;;;;;;;;6145772;23;20385;-82
2022/12/15 13:32:32;;;;;;;37.83;22.13;;;;;;;;;;6147740;23;20741;-82
2022/12/15 13:35:03;;;;;;;36.60;21.93;;;;;;;;;;6144913;23;20420;-83
2022/12/15 13:37:49;;;;;;;33.07;21.37;;;;;;;;;;6147428;23;20352;-81
2022/12/15 13:40:24;;;;;;;31.97;22.43;;;;;;;;;;6144601;23;20392;-83
2022/12/15 13:42:57;;;;;;;30.30;20.77;;;;;;;;;;6150149;23;20829;-83
2022/12/15 13:45:42;;;;;;;34.07;23.10;;;;;;;;;;6146289;23;20388;-83
2022/12/15 13:48:37;;;;;;;;;;;;;;;;;;;;;
2022/12/15 13:51:22;;;;;;;33.57;20.80;;;;;;;;;;6145617;23;20464;-83
2022/12/15 13:53:52;;;;;;;32.47;20.75;;;;;;;;;;6148717;23;20430;-83
2022/12/15 13:56:23;;;;;;;30.20;22.03;;;;;;;;;;6147483;23;20307;-84
2022/12/15 13:58:52;;;;;;;32.17;21.63;;;;;;;;;;6146869;23;20422;-81
2022/12/15 14:01:24;;;;;;;35.20;22.67;;;;;;;;;;6144636;23;20473;-84
2022/12/15 14:03:59;;;;;;;35.37;22.13;;;;;;;;;;6147220;23;20388;-84
2022/12/15 14:06:30;;;;;;;32.70;22.57;;;;;;;;;;6145097;23;20502;-84
2022/12/15 14:08:59;;;;;;;37.20;23.10;;;;;;;;;;6149051;23;20756;-84
2022/12/15 14:11:33;;;;;;;33.30;21.67;;;;;;;;;;6144125;23;20385;-84
2022/12/15 14:14:02;;;;;;;36.00;20.20;;;;;;;;;;6150505;23;20420;-84
2022/12/15 14:16:30;;;;;;;35.83;22.20;;;;;;;;;;6148095;23;21056;-86
2022/12/15 14:19:23;;;;;;;35.07;22.30;;;;;;;;;;6149019;23;20380;-85
2022/12/15 14:21:50;;;;;;;32.30;21.10;;;;;;;;;;6145415;23;20411;-82
2022/12/15 14:24:22;;;;;;;31.63;19.70;;;;;;;;;;6146412;23;20442;-82
2022/12/15 14:26:48;;;;;;;29.95;21.05;;;;;;;;;;6148746;23;20371;-83
2022/12/15 14:29:14;;;;;;;33.73;19.17;;;;;;;;;;6148138;23;20235;-84
2022/12/15 14:31:40;;;;;;;32.40;19.60;;;;;;;;;;6146563;23;20377;-82
2022/12/15 14:34:07;;;;;;;36.47;23.60;;;;;;;;;;6150068;23;20435;-83
2022/12/15 14:36:34;;;;;;;33.13;20.33;;;;;;;;;;6144022;23;20375;-83
2022/12/15 14:39:12;;;;;;;34.45;21.88;;;;;;;;;;6148386;23;20394;-83
2022/12/15 14:42:11;;;;;;;;;;;;;;;;;;;;;
2022/12/15 14:44:41;;;;;;;28.30;19.67;;;;;;;;;;6144614;23;20200;-84
2022/12/15 14:47:16;;;;;;;37.13;22.35;;;;;;;;;;6147954;23;20248;-82
2022/12/15 14:49:44;;;;;;;37.72;20.17;;;;;;;;;;6147830;23;20472;-83
2022/12/15 14:52:21;;;;;;;36.55;20.30;;;;;;;;;;6150525;23;20172;-81
2022/12/15 14:54:51;;;;;;;36.65;21.58;;;;;;;;;;6141455;23;20172;-82
2022/12/15 14:57:22;;;;;;;38.08;20.55;;;;;;;;;;6146250;23;20153;-82
2022/12/15 14:59:50;;;;;;;37.35;20.35;;;;;;;;;;6140894;23;20442;-82
2022/12/15 15:02:27;;;;;;;38.42;21.02;;;;;;;;;;6150731;23;20141;-83
2022/12/15 15:05:04;;;;;;;39.88;22.65;;;;;;;;;;6147580;23;20744;-82
2022/12/15 15:07:34;;;;;;;36.20;20.77;;;;;;;;;;6147138;23;20178;-82
2022/12/15 15:10:01;;;;;;;40.78;22.55;;;;;;;;;;6140175;23;20215;-80
2022/12/15 15:12:40;;;;;;;33.08;19.63;;;;;;;;;;6146891;23;20212;-81
2022/12/15 15:15:07;;;;;;;19.17;11.85;;;;;;;;;;6142785;23;20175;-82
2022/12/15 15:17:38;;;;;;;29.08;17.00;;;;;;;;;;6146629;23;20166;-80
2022/12/15 15:20:06;;;;;;;36.00;20.70;;;;;;;;;;6143371;23;20222;-82
2022/12/15 15:22:42;;;;;;;45.25;19.73;;;;;;;;;;6146608;23;20156;-83
2022/12/15 15:25:24;;;;;;;42.13;20.38;;;;;;;;;;6143422;23;20172;-81
2022/12/15 15:27:50;;;;;;;41.00;21.20;;;;;;;;;;6145795;23;20172;-83
2022/12/15 15:30:22;;;;;;;36.45;20.52;;;;;;;;;;6142939;23;20235;-82
2022/12/15 15:32:52;;;;;;;33.15;18.60;;;;;;;;;;6146763;23;20156;-80
2022/12/15 15:35:20;;;;;;;37.13;20.05;;;;;;;;;;6142474;23;20460;-82
2022/12/15 15:37:46;;;;;;;39.42;20.42;;;;;;;;;;6146565;23;20159;-82
2022/12/15 15:40:14;;;;;;;33.40;17.90;;;;;;;;;;6143562;23;20229;-84
2022/12/15 15:42:41;;;;;;;40.25;17.63;;;;;;;;;;6146784;23;20156;-80
2022/12/15 15:45:12;;;;;;;26.45;16.73;;;;;;;;;;6140573;23;20610;-80
2022/12/15 15:47:38;;;;;;;34.35;16.13;;;;;;;;;;6144471;23;20569;-84
2022/12/15 15:50:04;;;;;;;37.70;18.92;;;;;;;;;;6140551;23;20157;-81
2022/12/15 15:52:30;;;;;;;31.50;17.50;;;;;;;;;;6144173;23;20208;-84
2022/12/15 15:54:57;;;;;;;33.93;18.30;;;;;;;;;;6139864;23;20189;-81
2022/12/15 15:57:23;;;;;;;40.92;20.27;;;;;;;;;;6144555;23;20745;-82
2022/12/15 15:59:49;;;;;;;51.23;21.83;;;;;;;;;;6142496;23;20448;-82
2022/12/15 16:02:15;;;;;;;39.67;19.83;;;;;;;;;;6145482;23;20385;-82
2022/12/15 16:04:42;;;;;;;25.37;16.43;;;;;;;;;;6143658;23;20206;-83
2022/12/15 16:07:29;;;;;;;40.03;18.13;;;;;;;;;;6149346;23;20358;-85
2022/12/15 16:10:06;;;;;;;38.63;21.42;;;;;;;;;;6143037;23;20153;-80
2022/12/15 16:12:36;;;;;;;43.20;21.63;;;;;;;;;;6151326;23;20144;-82
2022/12/15 16:15:05;;;;;;;44.95;21.83;;;;;;;;;;6150216;23;20648;-86
2022/12/15 16:17:31;;;;;;;38.65;19.20;;;;;;;;;;6152443;23;20160;-87
2022/12/15 16:19:57;;;;;;;40.35;19.90;;;;;;;;;;6145317;23;20598;-81
2022/12/15 16:22:24;;;;;;;39.97;22.77;;;;;;;;;;6145689;23;20165;-80
2022/12/15 16:24:50;;;;;;;40.03;21.73;;;;;;;;;;6145017;23;20157;-80
2022/12/15 16:27:19;;;;;;;38.67;21.73;;;;;;;;;;6146083;23;20157;-80
2022/12/15 16:29:48;;;;;;;44.70;22.02;;;;;;;;;;6146425;23;20159;-83
2022/12/15 16:32:17;;;;;;;40.45;21.85;;;;;;;;;;6150451;23;20189;-82
2022/12/15 16:34:43;;;;;;;33.47;17.65;;;;;;;;;;6154503;23;20179;-79
2022/12/15 16:37:19;;;;;;;49.58;19.70;;;;;;;;;;6154159;23;20239;-78
2022/12/15 16:39:45;;;;;;;38.15;20.80;;;;;;;;;;6148913;23;20129;-79
2022/12/15 16:42:11;;;;;;;42.97;20.88;;;;;;;;;;6142260;23;20320;-79
2022/12/15 16:44:37;;;;;;;44.90;20.65;;;;;;;;;;6147390;23;20149;-79
2022/12/15 16:47:03;;;;;;;40.33;21.77;;;;;;;;;;6142137;23;20259;-79
2022/12/15 16:49:29;;;;;;;42.78;19.88;;;;;;;;;;6143562;23;20480;-81
2022/12/15 16:51:55;;;;;;;40.33;22.00;;;;;;;;;;6148551;23;20240;-80
2022/12/15 16:54:23;;;;;;;42.90;22.05;;;;;;;;;;6148809;23;20173;-80
2022/12/15 16:56:52;;;;;;;57.38;24.35;;;;;;;;;;6149622;23;20180;-80